Time;durP1;ratioP1;P1;durP2;ratioP2;P2;SDS_P1;SDS_P2;PMS_P1;PMS_P2;Temp;Humidity;BMP_temperature;BMP_pressure;BME280_temperature;BME280_humidity;BME280_pressure;Samples;Min_cycle;Max_cycle;Signal;HPM_P1;HPM_P2
2021/10/02 00:37:05;;;;;;;8.17;4.40;;;7.00;99.90;;;7.57;100.00;95183.00;2257737;55;26809;-55
2021/10/02 00:46:06;;;;;;;5.77;4.00;;;7.10;99.90;;;7.65;100.00;95185.00;2264370;56;26170;-54
2021/10/02 00:48:53;;;;;;;5.07;3.60;;;7.20;99.90;;;7.67;100.00;95182.00;2265299;56;26182;-55
2021/10/02 00:51:40;;;;;;;4.10;3.60;;;7.20;99.90;;;7.73;100.00;95180.00;2508231;55;26112;-55
2021/10/02 00:54:26;;;;;;;4.80;3.70;;;7.20;99.90;;;7.65;100.00;95180.00;2276460;55;26625;-56
2021/10/02 00:57:13;;;;;;;5.50;3.60;;;7.10;99.90;;;7.50;100.00;95193.00;2485213;55;26590;-55
2021/10/02 01:00:00;;;;;;;5.97;3.73;;;7.10;99.90;;;7.51;100.00;95178.00;2255172;56;26099;-56
2021/10/02 01:02:54;;;;;;;6.33;3.60;;;7.10;99.90;;;7.47;100.00;95175.00;2480514;55;26141;-56
2021/10/02 01:06:06;;;;;;;6.53;3.90;;;7.00;99.90;;;7.42;100.00;95177.00;2241982;56;26108;-56
2021/10/02 01:09:10;;;;;;;6.00;3.67;;;7.00;99.90;;;7.44;100.00;95185.00;2246792;56;26619;-56
2021/10/02 01:12:03;;;;;;;5.57;3.70;;;7.00;99.90;;;7.38;100.00;95175.00;2241769;56;26055;-55
2021/10/02 01:14:58;;;;;;;5.87;3.77;;;7.00;99.90;;;7.28;100.00;95168.00;2471570;55;26654;-55
2021/10/02 01:17:55;;;;;;;7.50;3.70;;;7.00;99.90;;;7.32;100.00;95174.00;2241156;56;26535;-56
2021/10/02 01:21:03;;;;;;;4.70;3.87;;;6.90;99.90;;;7.37;100.00;95168.00;2247092;56;26064;-56
2021/10/02 01:27:38;;;;;;;5.77;4.00;;;6.80;99.90;;;7.43;100.00;95153.00;2235947;55;33337;-56
2021/10/02 01:30:51;;;;;;;5.70;4.07;;;6.90;99.90;;;7.21;100.00;95162.00;2420721;56;26599;-56
2021/10/02 01:33:46;;;;;;;7.20;4.10;;;6.90;99.90;;;7.31;100.00;95168.00;2429190;56;26542;-56
2021/10/02 01:36:45;;;;;;;6.80;4.60;;;6.90;99.90;;;7.23;100.00;95159.00;2428766;56;26145;-55
2021/10/02 01:48:59;;;;;;;5.43;4.20;;;6.70;99.90;;;7.15;100.00;95162.00;2419756;55;26130;-56
2021/10/02 01:51:47;;;;;;;6.73;3.87;;;6.60;99.90;;;7.06;100.00;95169.00;2236769;57;26196;-57
2021/10/02 01:54:35;;;;;;;5.20;4.30;;;6.70;99.90;;;7.28;100.00;95167.00;2459792;55;26109;-57
2021/10/02 01:57:23;;;;;;;5.27;4.07;;;6.70;99.90;;;7.07;100.00;95162.00;2246151;56;26122;-56
2021/10/02 02:00:14;;;;;;;6.37;4.13;;;6.60;99.90;;;7.04;100.00;95160.00;2260795;56;27001;-57
2021/10/02 02:06:03;;;;;;;5.53;4.20;;;6.60;99.90;;;7.31;100.00;95147.00;2247426;55;33869;-56
2021/10/02 02:08:50;;;;;;;7.10;4.30;;;6.60;99.90;;;6.91;100.00;95159.00;2248119;54;26144;-56
2021/10/02 02:11:39;;;;;;;6.47;4.30;;;6.60;99.90;;;6.95;100.00;95166.00;2496296;55;26954;-56
2021/10/02 02:14:26;;;;;;;5.67;4.17;;;6.60;99.90;;;6.95;100.00;95160.00;2266530;56;26130;-55
2021/10/02 02:17:17;;;;;;;5.53;4.10;;;6.50;99.90;;;6.88;100.00;95157.00;2265329;56;26215;-56
2021/10/02 02:20:07;;;;;;;4.70;3.80;;;6.50;99.90;;;6.90;100.00;95163.00;2266675;56;26083;-57
2021/10/02 02:22:54;;;;;;;5.97;4.10;;;6.50;99.90;;;6.90;100.00;95161.00;2495631;55;26612;-57
2021/10/02 02:25:40;;;;;;;6.13;4.37;;;6.40;99.90;;;6.90;100.00;95168.00;2267070;56;26128;-57
2021/10/02 02:28:27;;;;;;;6.57;3.97;;;6.40;99.90;;;6.78;100.00;95159.00;2496609;55;26566;-57
2021/10/02 02:31:14;;;;;;;5.77;3.90;;;6.40;99.90;;;6.80;100.00;95162.00;2266613;56;26655;-57
2021/10/02 02:34:01;;;;;;;4.77;3.90;;;6.40;99.90;;;6.73;100.00;95154.00;2495892;55;26287;-58
2021/10/02 02:36:49;;;;;;;4.97;3.83;;;6.30;99.90;;;6.79;100.00;95156.00;2266854;56;26171;-56
2021/10/02 02:39:35;;;;;;;4.60;3.60;;;6.30;99.90;;;6.75;100.00;95160.00;2496420;55;26132;-57
2021/10/02 02:42:22;;;;;;;4.77;3.80;;;6.30;99.90;;;6.75;100.00;95152.00;2266989;56;26092;-58
2021/10/02 02:45:11;;;;;;;4.63;3.80;;;6.30;99.90;;;6.71;100.00;95158.00;2495471;55;26207;-56
2021/10/02 02:48:04;;;;;;;6.53;3.60;;;6.30;99.90;;;6.69;100.00;95160.00;2266586;56;26259;-57
2021/10/02 02:50:55;;;;;;;4.70;4.00;;;6.20;99.90;;;6.71;100.00;95158.00;2496484;55;26131;-55
2021/10/02 02:53:50;;;;;;;6.13;3.90;;;6.20;99.90;;;6.69;100.00;95163.00;2496067;55;26175;-56
2021/10/02 02:59:45;;;;;;;6.03;3.80;;;6.20;99.90;;;6.78;100.00;95149.00;2196488;55;34017;-56
2021/10/02 03:02:36;;;;;;;4.50;3.70;;;6.30;99.90;;;6.76;100.00;95153.00;2432611;56;26115;-57
2021/10/02 03:05:24;;;;;;;4.87;3.70;;;6.30;99.90;;;6.68;100.00;95156.00;2235715;57;26650;-56
2021/10/02 03:08:15;;;;;;;6.07;3.83;;;6.20;99.90;;;6.66;100.00;95158.00;2457509;56;26112;-56
2021/10/02 03:11:03;;;;;;;4.70;3.80;;;6.20;99.90;;;6.73;100.00;95159.00;2235504;57;26700;-56
2021/10/02 03:13:55;;;;;;;3.83;3.00;;;6.30;99.90;;;6.80;100.00;95157.00;2457700;56;26100;-57
2021/10/02 03:16:44;;;;;;;6.97;3.50;;;6.30;99.90;;;6.91;100.00;95151.00;2235209;57;26144;-57
2021/10/02 03:19:31;;;;;;;3.90;3.50;;;6.20;99.90;;;6.79;100.00;95142.00;2458041;56;26233;-57
2021/10/02 03:22:17;;;;;;;4.63;3.20;;;6.20;99.90;;;6.74;100.00;95146.00;2181783;58;26190;-57
2021/10/02 03:25:06;;;;;;;3.53;3.20;;;6.10;99.90;;;6.62;100.00;95149.00;2206102;56;26203;-57
2021/10/02 03:27:54;;;;;;;4.50;3.20;;;6.10;99.90;;;6.52;100.00;95148.00;2434183;56;26101;-56
2021/10/02 03:30:42;;;;;;;3.47;3.17;;;6.00;99.90;;;6.46;100.00;95159.00;2214641;56;26233;-56
2021/10/02 03:33:29;;;;;;;5.67;3.43;;;5.90;99.90;;;6.43;100.00;95160.00;2434211;56;26117;-57
2021/10/02 03:36:16;;;;;;;4.70;3.43;;;5.90;99.90;;;6.40;100.00;95159.00;2215119;56;26160;-56
2021/10/02 03:39:03;;;;;;;4.63;3.43;;;5.90;99.90;;;6.32;100.00;95162.00;2213589;56;26136;-56
2021/10/02 03:42:08;;;;;;;3.40;3.10;;;5.90;99.90;;;6.35;100.00;95151.00;2215698;56;26120;-57
2021/10/02 03:44:55;;;;;;;3.73;3.20;;;5.90;99.90;;;6.39;100.00;95159.00;2215497;56;26196;-56
2021/10/02 03:47:41;;;;;;;3.80;2.80;;;5.90;99.90;;;6.48;100.00;95155.00;2434237;56;27086;-57
2021/10/02 03:53:27;;;;;;;5.80;3.57;;;5.90;99.90;;;6.56;100.00;95141.00;2231680;56;33413;-55
2021/10/02 03:56:13;;;;;;;3.80;3.20;;;5.80;99.90;;;6.36;100.00;95158.00;2451462;56;26566;-56
2021/10/02 03:59:00;;;;;;;4.13;3.40;;;5.80;99.90;;;6.25;100.00;95150.00;2230876;57;26107;-56
2021/10/02 04:01:46;;;;;;;5.53;3.50;;;5.80;99.90;;;6.20;100.00;95153.00;2189111;57;26700;-56
2021/10/02 04:04:33;;;;;;;4.20;3.30;;;5.70;99.90;;;6.17;100.00;95151.00;2404134;56;26106;-57
2021/10/02 04:07:20;;;;;;;5.43;3.17;;;5.80;99.90;;;6.32;100.00;95146.00;2185171;56;26175;-56
2021/10/02 04:10:09;;;;;;;3.87;2.90;;;5.80;99.90;;;6.24;100.00;95143.00;2396796;56;26662;-56
2021/10/02 04:15:52;;;;;;;5.50;3.50;;;5.70;99.90;;;6.30;100.00;95131.00;2241401;56;33725;-56
2021/10/02 04:18:39;;;;;;;4.00;3.30;;;5.70;99.90;;;6.24;100.00;95154.00;2211130;56;26233;-56
2021/10/02 04:21:25;;;;;;;4.63;3.30;;;5.70;99.90;;;6.25;100.00;95146.00;2214820;56;26234;-56
2021/10/02 04:24:12;;;;;;;4.67;3.30;;;5.80;99.90;;;6.30;100.00;95146.00;2210113;57;26245;-57
2021/10/02 04:26:59;;;;;;;4.70;3.50;;;5.90;99.90;;;6.29;100.00;95150.00;2211452;57;26114;-55
2021/10/02 04:29:45;;;;;;;5.23;3.90;;;5.90;99.90;;;6.25;100.00;95153.00;2211228;56;26225;-56
2021/10/02 04:32:32;;;;;;;5.77;3.73;;;5.90;99.90;;;6.33;100.00;95145.00;2210363;57;26157;-56
2021/10/02 04:35:18;;;;;;;5.23;3.13;;;5.90;99.90;;;6.34;100.00;95149.00;2434498;56;26191;-57
2021/10/02 04:38:05;;;;;;;5.03;3.80;;;5.90;99.90;;;6.25;100.00;95143.00;2219908;56;26729;-57
2021/10/02 04:40:54;;;;;;;3.93;3.50;;;5.90;99.90;;;6.33;100.00;95150.00;2234868;56;26201;-56
2021/10/02 04:43:42;;;;;;;7.27;3.50;;;5.80;99.90;;;6.24;100.00;95151.00;2254349;55;26715;-56
2021/10/02 04:46:28;;;;;;;4.07;3.30;;;5.80;99.90;;;6.31;100.00;95147.00;2238728;57;26675;-56
2021/10/02 04:49:15;;;;;;;4.27;3.33;;;5.80;99.90;;;6.20;100.00;95153.00;2238002;57;26201;-56
2021/10/02 04:52:02;;;;;;;4.53;3.33;;;5.70;99.90;;;6.20;100.00;95156.00;2464478;55;26161;-56
2021/10/02 04:54:48;;;;;;;4.53;3.27;;;5.70;99.90;;;6.19;100.00;95157.00;2240731;56;26726;-56
2021/10/02 04:57:35;;;;;;;4.23;3.00;;;5.70;99.90;;;6.11;100.00;95154.00;2465290;55;26718;-56
2021/10/02 05:00:21;;;;;;;6.73;3.30;;;5.80;99.90;;;6.14;100.00;95162.00;2240126;56;26165;-55
2021/10/02 05:03:08;;;;;;;5.40;3.20;;;5.80;99.90;;;6.31;100.00;95165.00;2239680;56;26646;-57
2021/10/02 05:05:54;;;;;;;5.10;3.30;;;5.80;99.90;;;6.26;100.00;95163.00;2240603;56;26599;-56
2021/10/02 05:08:41;;;;;;;4.20;3.70;;;5.90;99.90;;;6.40;100.00;95167.00;2241499;56;26553;-56
2021/10/02 05:11:27;;;;;;;3.47;3.10;;;5.90;99.90;;;6.45;100.00;95165.00;2465869;55;26608;-57
2021/10/02 05:14:13;;;;;;;4.23;3.30;;;5.90;99.90;;;6.41;100.00;95156.00;2241612;56;26142;-56
2021/10/02 05:16:59;;;;;;;4.87;3.57;;;5.90;99.90;;;6.42;100.00;95161.00;2465588;55;26098;-56
2021/10/02 05:19:46;;;;;;;4.33;3.27;;;5.90;99.90;;;6.39;100.00;95163.00;2241942;55;26093;-56
2021/10/02 05:22:33;;;;;;;4.50;3.33;;;5.90;99.90;;;6.35;100.00;95157.00;2465236;55;26794;-56
2021/10/02 05:25:19;;;;;;;5.23;3.07;;;5.90;99.90;;;6.38;100.00;95162.00;2241748;56;26205;-56
2021/10/02 05:28:06;;;;;;;5.73;3.17;;;5.90;99.90;;;6.41;100.00;95171.00;2463612;55;26980;-59
2021/10/02 05:30:52;;;;;;;6.03;3.20;;;5.90;99.90;;;6.48;100.00;95162.00;2240237;56;26090;-56
2021/10/02 05:33:38;;;;;;;3.90;3.23;;;5.90;99.90;;;6.46;100.00;95165.00;2240409;56;26597;-56
2021/10/02 05:36:25;;;;;;;7.27;4.67;;;5.90;99.90;;;6.45;100.00;95168.00;2464335;55;26086;-57
2021/10/02 05:39:11;;;;;;;7.87;4.73;;;5.90;99.90;;;6.37;100.00;95162.00;2240699;56;26162;-56
2021/10/02 05:41:58;;;;;;;7.07;4.70;;;5.90;99.90;;;6.36;100.00;95164.00;2464563;55;26679;-56
2021/10/02 05:44:45;;;;;;;5.60;4.67;;;6.00;99.90;;;6.55;100.00;95171.00;2240583;56;26094;-56
2021/10/02 05:47:31;;;;;;;6.07;4.03;;;6.10;99.90;;;6.67;100.00;95167.00;2464814;55;26201;-55
2021/10/02 05:50:17;;;;;;;5.27;3.57;;;6.20;99.90;;;6.70;100.00;95180.00;2241324;56;26157;-57
2021/10/02 05:53:03;;;;;;;5.47;4.53;;;6.30;99.90;;;6.73;100.00;95177.00;2463473;55;26157;-56
2021/10/02 05:55:50;;;;;;;6.60;4.60;;;6.40;99.90;;;6.90;100.00;95179.00;2241101;56;26214;-56
2021/10/02 05:58:36;;;;;;;4.33;3.90;;;6.50;99.90;;;7.13;100.00;95182.00;2241239;56;26158;-58
2021/10/02 06:01:23;;;;;;;4.97;3.83;;;6.70;99.90;;;7.18;100.00;95182.00;2464224;55;26643;-57
2021/10/02 06:04:09;;;;;;;4.07;3.23;;;6.80;99.90;;;7.36;100.00;95187.00;2240792;56;26643;-56
2021/10/02 06:06:55;;;;;;;5.03;3.10;;;7.00;99.90;;;7.65;100.00;95176.00;2464573;55;26094;-56
2021/10/02 06:09:41;;;;;;;4.23;3.60;;;7.20;99.90;;;7.83;100.00;95178.00;2240749;56;26090;-56
2021/10/02 06:12:28;;;;;;;4.43;3.37;;;7.30;99.90;;;7.93;100.00;95178.00;2465048;55;26114;-56
2021/10/02 06:15:14;;;;;;;6.63;3.17;;;7.40;99.90;;;7.88;100.00;95179.00;2240314;56;26540;-56
2021/10/02 06:18:00;;;;;;;3.87;3.20;;;7.50;99.90;;;7.97;100.00;95177.00;2240450;56;26715;-57
2021/10/02 06:20:47;;;;;;;5.50;3.17;;;7.50;99.90;;;8.01;100.00;95181.00;2464814;55;26101;-56
2021/10/02 06:23:34;;;;;;;6.73;3.67;;;7.60;99.90;;;8.25;100.00;95179.00;2240080;56;26110;-57
2021/10/02 06:26:20;;;;;;;3.87;3.43;;;7.80;99.90;;;8.39;100.00;95173.00;2464757;55;26175;-56
2021/10/02 06:29:09;;;;;;;4.17;3.33;;;7.90;99.90;;;8.56;100.00;95179.00;2240696;56;26089;-57
2021/10/02 06:34:52;;;;;;;7.87;6.87;;;8.30;99.90;;;9.11;100.00;95174.00;2214348;57;33291;-57
2021/10/02 06:37:39;;;;;;;6.30;5.57;;;8.50;99.90;;;9.19;100.00;95180.00;2190663;57;26141;-57
2021/10/02 06:40:26;;;;;;;5.67;4.37;;;8.60;99.90;;;9.34;100.00;95178.00;2185534;57;26169;-59
2021/10/02 06:43:12;;;;;;;6.60;4.10;;;8.80;99.90;;;9.54;100.00;95180.00;2398245;57;26617;-57
2021/10/02 06:45:59;;;;;;;4.73;3.70;;;9.00;99.90;;;9.77;100.00;95179.00;2185655;57;26215;-56
2021/10/02 06:48:45;;;;;;;4.73;3.50;;;9.20;99.90;;;9.92;100.00;95172.00;2398152;57;26658;-58
2021/10/02 06:51:32;;;;;;;7.03;3.80;;;9.30;99.90;;;10.18;100.00;95172.00;2194744;56;26238;-56
2021/10/02 06:54:18;;;;;;;4.30;3.50;;;9.60;99.90;;;10.35;100.00;95174.00;2205213;57;26165;-59
2021/10/02 06:57:07;;;;;;;4.63;3.70;;;9.90;99.90;;;10.83;100.00;95173.00;2210376;57;26157;-56
2021/10/02 06:59:53;;;;;;;4.87;3.47;;;10.10;99.90;;;11.20;100.00;95167.00;2429027;57;26125;-57
2021/10/02 07:02:41;;;;;;;5.60;3.87;;;10.50;99.90;;;11.72;100.00;95166.00;2210490;56;26596;-57
2021/10/02 07:05:27;;;;;;;6.20;3.53;;;11.00;99.90;;;12.34;100.00;95152.00;2216198;56;26144;-57
2021/10/02 07:08:14;;;;;;;4.13;3.40;;;11.40;99.90;;;12.55;100.00;95150.00;2433714;56;26141;-56
2021/10/02 07:11:01;;;;;;;6.57;3.13;;;11.50;99.90;;;12.33;100.00;95141.00;2215152;56;26192;-57
2021/10/02 07:13:47;;;;;;;4.55;3.30;;;12.00;99.90;;;13.07;100.00;95138.00;2215727;56;26723;-57
2021/10/02 07:16:33;;;;;;;4.20;3.00;;;12.80;99.90;;;14.23;100.00;95144.00;2215387;56;26611;-57
2021/10/02 07:19:20;;;;;;;4.03;3.47;;;13.30;99.90;;;14.74;100.00;95147.00;2434560;56;26547;-56
2021/10/02 07:25:07;;;;;;;3.22;2.70;;;14.90;99.90;;;17.07;100.00;95148.00;2276567;54;33205;-55
2021/10/02 07:27:53;;;;;;;4.15;2.90;;;15.10;99.90;;;16.66;100.00;95147.00;2282596;54;26560;-54
2021/10/02 07:33:37;;;;;;;3.75;3.00;;;14.50;99.90;;;15.38;100.00;95135.00;2251836;55;33260;-56
2021/10/02 07:36:24;;;;;;;4.07;3.22;;;14.00;99.90;;;14.86;100.00;95141.00;2307274;55;26135;-57
2021/10/02 07:39:11;;;;;;;3.83;2.85;;;13.80;99.90;;;14.79;100.00;95141.00;2316233;54;26271;-56
2021/10/02 07:41:59;;;;;;;4.72;3.10;;;13.60;99.90;;;14.69;100.00;95134.00;2317108;55;26152;-55
2021/10/02 07:44:52;;;;;;;5.03;3.10;;;13.30;99.90;;;14.40;100.00;95143.00;2559282;54;26156;-57
2021/10/02 07:47:43;;;;;;;3.90;3.20;;;13.10;99.90;;;14.07;100.00;95142.00;2317610;56;26571;-55
2021/10/02 07:50:30;;;;;;;4.80;3.20;;;12.90;99.90;;;13.90;100.00;95131.00;2558979;54;26817;-56
2021/10/02 07:53:17;;;;;;;3.35;2.85;;;12.90;99.90;;;13.97;100.00;95134.00;2318097;55;26565;-56
2021/10/02 07:56:06;;;;;;;6.37;2.75;;;14.00;99.90;;;15.79;100.00;95127.00;2318091;55;26136;-56
2021/10/02 07:58:54;;;;;;;5.78;2.95;;;15.70;99.90;;;18.42;100.00;95128.00;2318080;55;26132;-56
2021/10/02 08:01:40;;;;;;;3.78;2.90;;;17.10;99.90;;;20.12;100.00;95106.00;2313081;55;26161;-57
2021/10/02 08:04:27;;;;;;;2.75;2.53;;;19.20;99.90;;;23.33;100.00;95119.00;2526947;55;26093;-57
2021/10/02 08:10:14;;;;;;;3.50;2.42;;;20.50;99.90;;;24.15;100.00;95116.00;2225592;56;33941;-57
2021/10/02 08:13:01;;;;;;;3.17;2.87;;;21.30;99.90;;;24.45;100.00;95123.00;2440911;55;26197;-57
2021/10/02 08:15:56;;;;;;;2.50;2.30;;;21.50;99.90;;;25.49;100.00;95111.00;2215396;56;26668;-57
2021/10/02 08:18:43;;;;;;;5.05;2.60;;;22.30;99.90;;;26.15;98.57;95118.00;2240360;56;25056;-55
2021/10/02 08:21:30;;;;;;;3.80;2.47;;;23.40;99.90;;;26.72;87.55;95121.00;2233350;56;25133;-54
2021/10/02 08:24:19;;;;;;;5.30;2.70;;;23.70;99.90;;;27.58;92.40;95106.00;2439246;55;26248;-55
2021/10/02 08:27:05;;;;;;;6.75;2.65;;;24.00;99.90;;;28.42;84.34;95103.00;2214550;57;26329;-54
2021/10/02 08:29:52;;;;;;;2.60;2.33;;;24.30;99.90;;;27.81;83.01;95111.00;2433392;56;25082;-55
2021/10/02 08:32:39;;;;;;;2.35;2.12;;;24.80;99.90;;;28.23;83.54;95113.00;2214904;57;26575;-54
2021/10/02 08:35:25;;;;;;;2.90;2.60;;;25.10;99.90;;;28.52;74.24;95111.00;2432781;56;25474;-54
2021/10/02 08:38:12;;;;;;;3.20;2.40;;;24.60;99.90;;;27.45;82.97;95105.00;2213591;57;25610;-54
2021/10/02 08:40:58;;;;;;;3.05;2.50;;;24.50;99.90;;;27.40;80.97;95094.00;2433054;56;25177;-55
2021/10/02 08:46:46;;;;;;;2.97;2.50;;;25.00;99.90;;;29.04;76.11;95081.00;2260407;55;32125;-54
2021/10/02 08:49:45;;;;;;;3.40;2.58;;;24.80;99.90;;;29.15;74.72;95091.00;2298254;55;25126;-54
2021/10/02 08:52:33;;;;;;;3.67;2.33;;;25.60;99.90;;;30.00;78.07;95086.00;2263689;55;25081;-55
2021/10/02 08:55:20;;;;;;;2.83;2.40;;;25.80;99.90;;;29.66;73.50;95085.00;2481153;54;25679;-55
2021/10/02 08:58:06;;;;;;;3.75;2.47;;;26.00;99.90;;;30.66;71.95;95077.00;2270702;55;25064;-55
2021/10/02 09:00:53;;;;;;;3.70;2.30;;;26.50;99.90;;;31.20;65.70;95065.00;2305134;54;25050;-55
2021/10/02 09:03:40;;;;;;;2.78;2.42;;;27.10;99.90;;;31.35;68.64;95059.00;2523246;54;25114;-55
2021/10/02 09:06:27;;;;;;;4.70;2.40;;;27.30;99.90;;;30.83;63.39;95055.00;2289296;55;25661;-54
2021/10/02 09:09:16;;;;;;;3.12;2.53;;;27.40;99.90;;;31.21;74.29;95051.00;2522835;54;25111;-54
2021/10/02 09:12:06;;;;;;;2.60;2.40;;;28.20;99.90;;;31.10;65.38;95044.00;2289876;55;25100;-54
2021/10/02 09:14:53;;;;;;;3.58;2.65;;;27.90;99.90;;;31.22;65.45;95035.00;2523476;54;25040;-55
2021/10/02 09:17:40;;;;;;;2.85;2.65;;;27.90;99.90;;;31.33;55.38;95032.00;2289627;55;25051;-55
2021/10/02 09:20:27;;;;;;;4.80;2.80;;;28.20;99.90;;;31.56;54.90;95027.00;2524182;54;25151;-55
2021/10/02 09:23:14;;;;;;;4.80;2.67;;;28.60;99.90;;;33.13;56.18;95027.00;2288326;55;25120;-54
2021/10/02 09:26:05;;;;;;;2.92;2.70;;;28.90;99.90;;;33.30;53.11;95030.00;2523312;55;25585;-55
2021/10/02 09:28:52;;;;;;;2.78;2.58;;;28.80;99.90;;;33.10;50.03;95036.00;2289629;55;25168;-55
2021/10/02 09:31:39;;;;;;;5.72;3.00;;;28.90;99.90;;;32.83;51.16;95033.00;2288295;55;25960;-54
2021/10/02 09:34:26;;;;;;;2.90;2.70;;;29.50;99.90;;;33.72;49.23;95027.00;2523337;54;25150;-54
2021/10/02 09:40:20;;;;;;;3.87;2.95;;;30.00;99.90;;;34.31;47.31;95027.00;2249842;55;32886;-56
2021/10/02 09:43:07;;;;;;;3.30;3.00;;;29.40;99.90;;;33.78;46.33;95027.00;2245698;56;25164;-56
2021/10/02 09:45:55;;;;;;;4.93;2.90;;;29.20;99.90;;;33.83;43.22;95023.00;2513468;54;25134;-57
2021/10/02 09:48:51;;;;;;;4.22;2.75;;;29.70;99.90;;;34.37;45.61;95023.00;2298192;54;25156;-56
2021/10/02 09:54:43;;;;;;;3.10;2.80;;;29.80;99.90;;;34.18;41.62;95012.00;2225172;56;32428;-56
2021/10/02 09:57:29;;;;;;;3.47;2.90;;;29.70;99.90;;;33.75;41.69;95012.00;2229345;56;25137;-56
2021/10/02 10:00:22;;;;;;;4.03;2.87;;;29.30;99.90;;;33.00;41.33;95006.00;2234078;56;25158;-56
2021/10/02 10:03:11;;;;;;;3.40;3.10;;;29.40;99.90;;;33.79;42.12;95008.00;2441593;55;25089;-57
2021/10/02 10:05:57;;;;;;;5.03;2.80;;;29.10;99.90;;;32.25;40.68;95007.00;2231357;56;25130;-57
2021/10/02 10:08:44;;;;;;;3.40;3.10;;;27.60;99.90;;;29.99;50.86;95005.00;2225748;56;25094;-56
2021/10/02 10:14:39;;;;;;;4.55;2.92;;;26.50;99.90;;;29.03;51.76;94987.00;2243023;55;33743;-55
2021/10/02 10:17:29;;;;;;;3.05;2.85;;;26.20;99.90;;;29.13;51.22;94987.00;2229701;56;25824;-54
2021/10/02 10:20:15;;;;;;;3.30;2.90;;;26.50;99.90;;;29.91;52.36;94990.00;2243384;56;27065;-54
2021/10/02 10:23:04;;;;;;;3.17;2.90;;;27.20;99.90;;;31.11;53.51;94983.00;2239744;56;25177;-55
2021/10/02 10:25:55;;;;;;;3.33;3.03;;;27.90;99.90;;;32.29;45.94;94984.00;2475971;54;25063;-55
2021/10/02 10:28:44;;;;;;;4.60;3.17;;;28.30;99.90;;;32.56;45.04;94981.00;2496727;54;25183;-55
2021/10/02 10:31:30;;;;;;;3.03;2.83;;;28.20;99.90;;;32.42;42.52;94980.00;2267023;55;25055;-55
2021/10/02 10:34:17;;;;;;;3.28;2.97;;;28.50;99.90;;;33.40;54.28;94985.00;2275158;56;25562;-54
2021/10/02 10:37:04;;;;;;;3.10;2.80;;;29.20;99.90;;;33.83;40.46;94985.00;2522151;55;25115;-54
2021/10/02 10:39:57;;;;;;;3.45;3.00;;;29.80;99.90;;;33.08;39.10;94973.00;2278979;55;25482;-55
2021/10/02 10:42:43;;;;;;;3.17;2.90;;;29.20;99.90;;;33.97;43.02;94970.00;2267159;56;25213;-55
2021/10/02 10:45:31;;;;;;;4.37;3.10;;;30.00;99.90;;;35.62;38.89;94968.00;2281243;56;25083;-54
2021/10/02 10:48:17;;;;;;;3.80;2.85;;;29.90;99.90;;;34.95;36.05;94961.00;2522700;55;25047;-54
2021/10/02 10:51:06;;;;;;;3.45;2.72;;;29.80;99.90;;;34.67;38.66;94967.00;2288533;56;25537;-54
2021/10/02 10:53:53;;;;;;;3.15;2.85;;;30.30;99.90;;;35.82;33.63;94956.00;2522490;55;25506;-55
2021/10/02 10:56:42;;;;;;;2.90;2.70;;;30.60;99.90;;;36.24;32.57;94951.00;2288577;56;25495;-55
2021/10/02 10:59:49;;;;;;;2.90;2.70;;;30.60;99.90;;;35.54;32.26;94944.00;2522908;55;25048;-54
2021/10/02 11:02:53;;;;;;;2.65;2.45;;;30.90;99.90;;;35.24;33.04;94940.00;2504947;55;25133;-55
2021/10/02 11:09:07;;;;;;;3.25;2.80;;;29.70;99.90;;;36.06;34.62;94928.00;2464338;55;32275;-56
2021/10/02 11:15:04;;;;;;;3.70;2.35;;;30.30;99.90;;;34.88;31.38;94930.00;2298755;53;32227;-56
2021/10/02 11:17:51;;;;;;;3.87;2.80;;;29.90;99.90;;;33.51;32.77;94927.00;2493112;54;25539;-56
2021/10/02 11:20:40;;;;;;;2.62;2.42;;;30.10;99.90;;;33.86;31.84;94922.00;2292238;54;25111;-56
2021/10/02 11:24:09;;;;;;;2.92;2.25;;;29.50;99.90;;;33.13;34.27;94905.00;2522462;54;25566;-56
2021/10/02 11:26:58;;;;;;;2.40;2.20;;;28.80;99.90;;;31.50;35.06;94893.00;2288777;54;25083;-56
2021/10/02 11:29:46;;;;;;;2.92;2.70;;;28.20;99.90;;;30.31;35.00;94890.00;2522022;54;26504;-55
2021/10/02 11:32:37;;;;;;;2.87;2.60;;;27.00;99.90;;;28.91;38.63;94896.00;2295431;54;25028;-55
2021/10/02 11:35:34;;;;;;;3.03;2.25;;;27.20;99.90;;;30.41;42.20;94888.00;2529463;53;26134;-55
2021/10/02 11:38:36;;;;;;;2.92;2.40;;;28.20;99.90;;;30.97;40.02;94887.00;2293850;54;26687;-55
2021/10/02 11:41:25;;;;;;;3.17;2.75;;;28.20;99.90;;;31.14;38.09;94879.00;2294516;54;25075;-55
2021/10/02 11:44:13;;;;;;;2.80;2.50;;;28.30;99.90;;;31.14;39.99;94871.00;2529851;53;26134;-56
2021/10/02 11:47:35;;;;;;;2.58;2.37;;;28.90;99.90;;;31.80;38.97;94867.00;2294647;55;25108;-56
2021/10/02 11:50:29;;;;;;;4.55;2.40;;;28.80;99.90;;;31.24;39.12;94865.00;2306714;54;26112;-56
2021/10/02 11:56:21;;;;;;;3.17;2.70;;;28.60;99.90;;;30.11;42.90;94856.00;2224201;56;33826;-55
2021/10/02 11:59:08;;;;;;;3.12;2.72;;;28.10;99.90;;;29.77;41.60;94856.00;2208600;57;25582;-55
2021/10/02 12:01:54;;;;;;;3.10;2.80;;;27.40;99.90;;;28.83;43.75;94837.00;2459751;55;26685;-55
2021/10/02 12:04:41;;;;;;;4.57;2.92;;;26.90;99.90;;;28.03;45.50;94841.00;2232941;58;25072;-56
2021/10/02 12:07:31;;;;;;;3.25;2.95;;;26.80;99.90;;;27.87;49.52;94837.00;2456214;56;25140;-55
2021/10/02 12:10:18;;;;;;;4.93;3.17;;;27.20;99.90;;;28.72;46.50;94838.00;2232661;57;26629;-55
2021/10/02 12:16:20;;;;;;;6.68;3.10;;;27.20;99.90;;;27.92;51.24;94824.00;2511730;55;33241;-55
2021/10/02 12:19:09;;;;;;;3.80;2.90;;;26.70;99.90;;;27.84;52.80;94824.00;2519856;55;26666;-55
2021/10/02 12:24:55;;;;;;;3.20;2.90;;;26.30;99.90;;;26.71;52.84;94817.00;2246104;55;33251;-55
2021/10/02 12:27:42;;;;;;;3.33;3.03;;;25.20;99.90;;;25.76;56.58;94818.00;2450566;55;26095;-55
2021/10/02 12:30:29;;;;;;;3.65;3.35;;;25.50;99.90;;;26.02;64.17;94823.00;2468068;55;26111;-55
2021/10/02 12:33:15;;;;;;;5.43;3.58;;;25.70;99.90;;;26.44;63.19;94814.00;2262199;55;26200;-55
2021/10/02 12:36:01;;;;;;;4.65;3.30;;;25.80;99.90;;;26.35;65.60;94802.00;2489743;55;26118;-55
2021/10/02 12:38:47;;;;;;;3.92;3.47;;;25.50;99.90;;;25.82;67.87;94807.00;2246125;55;26650;-55
2021/10/02 12:41:41;;;;;;;4.05;3.20;;;25.00;99.90;;;25.08;66.24;94813.00;2265346;55;26112;-55
2021/10/02 12:44:30;;;;;;;3.70;3.30;;;24.90;99.90;;;25.18;74.92;94806.00;2283628;55;26077;-55
2021/10/02 12:47:21;;;;;;;4.18;3.72;;;24.60;99.90;;;24.80;80.35;94803.00;2521863;55;26096;-55
2021/10/02 12:53:11;;;;;;;3.75;3.15;;;24.10;99.90;;;24.17;95.03;94796.00;2251991;55;33292;-56
2021/10/02 12:55:57;;;;;;;5.82;3.55;;;24.20;99.90;;;24.21;96.81;94796.00;2487756;55;26228;-55
2021/10/02 12:58:46;;;;;;;3.53;3.20;;;23.80;99.90;;;23.98;95.41;94787.00;2476303;55;26214;-55
2021/10/02 13:04:33;;;;;;;5.28;3.50;;;23.40;99.90;;;23.71;99.47;94778.00;2239988;56;33263;-55
2021/10/02 13:07:32;;;;;;;3.45;3.05;;;23.30;99.90;;;23.56;100.00;94776.00;2414831;55;26140;-55
2021/10/02 13:10:21;;;;;;;4.22;3.15;;;23.30;99.90;;;23.82;98.54;94775.00;2428371;56;26202;-55
2021/10/02 13:13:10;;;;;;;3.55;3.25;;;23.20;99.90;;;23.60;100.00;94771.00;2229334;56;26687;-54
2021/10/02 13:15:58;;;;;;;4.07;3.20;;;23.00;99.90;;;23.30;100.00;94777.00;2486335;55;26491;-55
2021/10/02 13:18:46;;;;;;;3.58;3.05;;;22.80;99.90;;;23.05;97.56;94752.00;2257433;55;26115;-55
2021/10/02 13:21:32;;;;;;;4.68;3.22;;;22.70;99.90;;;23.08;100.00;94755.00;2245312;56;27023;-54
2021/10/02 13:24:21;;;;;;;4.85;3.28;;;22.50;99.90;;;22.85;100.00;94754.00;2265594;55;26162;-55
2021/10/02 13:27:11;;;;;;;3.12;2.80;;;22.30;99.90;;;22.63;97.31;94753.00;2266202;56;26169;-55
2021/10/02 13:33:07;;;;;;;3.58;3.00;;;22.20;99.90;;;22.74;98.20;94747.00;2265330;56;33888;-55
2021/10/02 13:35:56;;;;;;;5.53;3.15;;;21.90;99.90;;;22.24;95.74;94741.00;2503282;53;26088;-55
2021/10/02 13:38:43;;;;;;;4.37;2.65;;;21.80;99.90;;;22.11;100.00;94747.00;2266582;54;26152;-55
2021/10/02 13:41:32;;;;;;;4.25;3.30;;;21.80;99.90;;;22.17;94.66;94738.00;2264366;54;26100;-56
2021/10/02 13:47:26;;;;;;;3.37;3.08;;;21.60;99.90;;;22.28;100.00;94723.00;2525928;54;33542;-54
2021/10/02 13:50:13;;;;;;;3.30;2.92;;;21.60;99.90;;;22.13;100.00;94736.00;2254898;55;26771;-55
2021/10/02 13:53:00;;;;;;;3.37;3.08;;;21.40;99.90;;;21.86;100.00;94731.00;2289058;55;26153;-55